Impacts METAR Board
IDs:

KMDW - Chicago/Midway Intl, IL, US

Updated at: 1200 UTC 07 Jul 2020
Potential Impact None Slight Moderate High
Time 07/00Z 07/01Z 07/02Z 07/03Z 07/04Z 07/05Z 07/06Z 07/07Z 07/08Z 07/09Z 07/10Z 07/11Z 07/12Z
Temp89 87 86 85 85 85 83 82 80 79 79 77 80
Dewpt62 63 62 64 65 63 62 62 64 65 67 68 68
Altim29.94 29.94 29.95 29.97 29.98 29.98 29.98 29.96 29.96 29.95 29.96 29.97 29.98
VIS10 10 10 10 10 10 10 10 10 10 10 9 10
CIG-- -- -- -- -- -- -- -- -- -- -- -- --
CoverSCTSCTSCTFEWSCTFEWFEWCLRCLRCLRFEWFEWFEW
FltCatVFRVFRVFRVFRVFRVFRVFRVFRVFRVFRVFRVFRVFR
WX--------------------------
WDir10011090130170200240210210200210270240
WSpd8 7 4 4 4 5 6 3 4 3 3 4 4
WGst-- -- -- -- -- -- -- -- -- -- -- -- --
Raw hourly METARs
KMDW 062353Z 10008KT 10SM FEW070 SCT150 32/17 A2994 RMK AO2 SLP126 T03170167 10344 20317 58005
KMDW 070053Z 11007KT 10SM FEW070 FEW150 SCT250 31/17 A2994 RMK AO2 SLP125 T03060172
KMDW 070153Z 09004KT 10SM FEW060 SCT250 30/17 A2995 RMK AO2 SLP127 T03000167
KMDW 070253Z 13004KT 10SM FEW070 29/18 A2997 RMK AO2 SLP135 T02940178 53009
KMDW 070353Z 17004KT 10SM SCT070 29/18 A2998 RMK AO2 SLP136 T02940183
KMDW 070453Z 20005KT 10SM FEW070 29/17 A2998 RMK AO2 SLP138 T02940172
KMDW 070553Z 24006KT 10SM FEW070 28/17 A2998 RMK AO2 SLP137 T02830167 10317 20278 403440244 50003
KMDW 070653Z 21003KT 10SM CLR 28/17 A2996 RMK AO2 SLP131 T02780167
KMDW 070753Z 21004KT 10SM CLR 27/18 A2996 RMK AO2 SLP130 T02670178
KMDW 070853Z 20003KT 10SM CLR 26/18 A2995 RMK AO2 SLP127 T02610183 56011
KMDW 070953Z 21003KT 10SM FEW060 26/19 A2996 RMK AO2 SLP130 T02610194
KMDW 071053Z 27004KT 9SM FEW060 FEW250 25/20 A2997 RMK AO2 SLP137 T02500200
KMDW 071153Z 24004KT 10SM FEW250 27/20 A2998 RMK AO2 SLP138 T02670200 10283 20250 51011



Page loaded:  12:29 UTC  |   05:29 AM Pacific  |   06:29 AM Mountain  |   07:29 AM Central  |   08:29 AM Eastern

 

ADVISORIES

FORECASTS

FORECASTS

OBSERVATIONS

USER TOOLS

ABOUT US